Time;durP1;ratioP1;P1;durP2;ratioP2;P2;SDS_P1;SDS_P2;PMS_P1;PMS_P2;Temp;Humidity;BMP_temperature;BMP_pressure;BME280_temperature;BME280_humidity;BME280_pressure;Samples;Min_cycle;Max_cycle;Signal;HPM_P1;HPM_P2
2023/08/03 00:01:53;;;;;;;8.18;1.70;;;16.00;99.90;;;;;;5049770;28;267917;-72
2023/08/03 00:04:20;;;;;;;9.93;2.03;;;16.00;99.90;;;;;;5078401;28;20530;-72
2023/08/03 00:06:46;;;;;;;10.63;2.33;;;16.00;99.90;;;;;;5052462;28;253866;-73
2023/08/03 00:09:12;;;;;;;9.52;2.30;;;16.00;99.90;;;;;;5056938;28;20053;-73
2023/08/03 00:11:38;;;;;;;11.10;2.00;;;16.00;99.90;;;;;;5051699;28;249041;-73
2023/08/03 00:14:04;;;;;;;8.68;2.10;;;16.00;99.90;;;;;;5064013;28;20060;-74
2023/08/03 00:16:30;;;;;;;10.77;2.50;;;16.00;99.90;;;;;;5069498;28;20082;-74
2023/08/03 00:18:56;;;;;;;12.13;2.50;;;16.00;99.90;;;;;;5047756;28;83132;-72
2023/08/03 00:21:22;;;;;;;12.15;2.30;;;16.00;99.90;;;;;;5068125;28;20044;-74
2023/08/03 00:23:48;;;;;;;12.20;2.40;;;16.00;99.90;;;;;;5057431;28;273607;-73
2023/08/03 00:26:14;;;;;;;10.63;2.30;;;16.00;99.90;;;;;;5069893;28;20052;-73
2023/08/03 00:28:42;;;;;;;11.60;2.42;;;16.00;99.90;;;;;;5053823;28;124743;-73
2023/08/03 00:31:08;;;;;;;10.43;2.50;;;16.10;99.90;;;;;;5068780;28;20048;-73
2023/08/03 00:33:34;;;;;;;11.73;2.45;;;16.10;99.90;;;;;;5054879;28;28429;-74
2023/08/03 00:36:00;;;;;;;9.82;2.33;;;16.10;99.90;;;;;;5068330;28;20061;-74
2023/08/03 00:38:26;;;;;;;13.77;2.53;;;16.10;99.90;;;;;;5062452;28;155596;-75
2023/08/03 00:40:53;;;;;;;10.82;2.50;;;16.10;99.90;;;;;;5062656;28;20059;-75
2023/08/03 00:43:19;;;;;;;11.00;2.17;;;16.10;99.90;;;;;;5051702;28;229413;-76
2023/08/03 00:45:45;;;;;;;11.13;2.35;;;16.10;99.90;;;;;;5039032;28;20056;-76
2023/08/03 00:48:11;;;;;;;11.52;2.30;;;16.10;99.90;;;;;;5028901;28;60795;-76
2023/08/03 00:50:37;;;;;;;10.68;2.63;;;16.10;99.90;;;;;;5047566;28;20591;-76
2023/08/03 00:53:04;;;;;;;9.40;2.50;;;16.10;99.90;;;;;;5028208;28;273146;-76
2023/08/03 00:55:31;;;;;;;10.52;2.20;;;16.10;99.90;;;;;;5062623;28;20060;-75
2023/08/03 00:57:57;;;;;;;9.13;1.73;;;16.00;99.90;;;;;;5055758;28;167118;-74
2023/08/03 01:00:23;;;;;;;10.20;1.80;;;16.10;99.90;;;;;;5065939;28;20048;-74
2023/08/03 01:02:49;;;;;;;8.93;1.70;;;16.00;99.90;;;;;;5051107;28;80550;-77
2023/08/03 01:05:15;;;;;;;9.70;2.08;;;16.00;99.90;;;;;;5064493;28;20075;-76
2023/08/03 01:07:41;;;;;;;9.40;1.80;;;16.00;99.90;;;;;;5070894;28;35854;-75
2023/08/03 01:10:08;;;;;;;9.85;1.85;;;15.90;99.90;;;;;;5057039;28;20296;-76
2023/08/03 01:12:34;;;;;;;11.98;2.20;;;15.90;99.90;;;;;;5049844;28;211771;-74
2023/08/03 01:15:00;;;;;;;7.47;1.60;;;15.90;99.90;;;;;;5064955;28;20056;-73
2023/08/03 01:17:26;;;;;;;8.40;1.73;;;15.90;99.90;;;;;;5057597;28;112866;-74
2023/08/03 01:19:52;;;;;;;7.90;1.42;;;15.90;99.90;;;;;;5072295;28;20063;-75
2023/08/03 01:22:19;;;;;;;7.80;1.45;;;15.80;99.90;;;;;;5069686;28;203748;-75
2023/08/03 01:24:45;;;;;;;8.48;1.50;;;15.80;99.90;;;;;;5059242;28;20549;-77
2023/08/03 01:27:11;;;;;;;7.03;1.50;;;15.80;99.90;;;;;;5050570;28;267808;-76
2023/08/03 01:29:37;;;;;;;7.50;1.55;;;15.80;99.90;;;;;;5081700;28;20052;-75
2023/08/03 01:32:04;;;;;;;8.35;1.70;;;15.80;99.90;;;;;;5061909;28;20450;-75
2023/08/03 01:34:32;;;;;;;6.13;1.58;;;15.80;99.90;;;;;;5078165;28;20055;-75
2023/08/03 01:36:58;;;;;;;7.45;1.80;;;15.80;99.90;;;;;;5052268;28;178006;-76
2023/08/03 01:39:27;;;;;;;7.07;1.80;;;15.80;99.90;;;;;;5062501;28;20063;-75
2023/08/03 01:41:53;;;;;;;11.65;2.17;;;15.80;99.90;;;;;;5062783;28;20053;-74
2023/08/03 01:44:24;;;;;;;9.95;2.15;;;15.80;99.90;;;;;;5069464;28;20071;-73
2023/08/03 01:46:51;;;;;;;;;;;15.80;99.90;;;;;;5042932;28;265776;-73
2023/08/03 01:49:17;;;;;;;8.65;1.90;;;15.80;99.90;;;;;;5082951;28;19926;-73
2023/08/03 01:51:43;;;;;;;7.85;1.85;;;15.80;99.90;;;;;;5029434;28;264658;-73
2023/08/03 01:54:11;;;;;;;7.70;1.92;;;15.80;99.90;;;;;;5062395;28;20060;-73
2023/08/03 01:56:37;;;;;;;8.35;1.90;;;15.80;99.90;;;;;;5048589;28;265508;-74
2023/08/03 01:59:04;;;;;;;7.90;2.10;;;15.80;99.90;;;;;;5058257;28;20049;-73
2023/08/03 02:01:31;;;;;;;6.40;2.03;;;15.80;99.90;;;;;;5057424;28;20480;-74
2023/08/03 02:03:57;;;;;;;7.95;2.20;;;15.80;99.90;;;;;;5067138;28;56547;-75
2023/08/03 02:06:23;;;;;;;9.30;2.72;;;15.80;99.90;;;;;;5067551;28;20056;-74
2023/08/03 02:08:49;;;;;;;10.73;2.70;;;15.80;99.90;;;;;;5052600;28;157594;-73
2023/08/03 02:11:15;;;;;;;9.85;2.83;;;15.80;99.90;;;;;;5061324;28;20052;-73
2023/08/03 02:13:41;;;;;;;8.25;2.75;;;15.80;99.90;;;;;;5062612;28;257861;-72
2023/08/03 02:16:10;;;;;;;10.15;3.10;;;15.80;99.90;;;;;;5062615;28;20537;-72
2023/08/03 02:18:38;;;;;;;9.80;2.95;;;15.80;99.90;;;;;;5059813;28;283547;-73
2023/08/03 02:21:05;;;;;;;10.13;3.03;;;15.80;99.90;;;;;;5067255;28;20044;-73
2023/08/03 02:23:32;;;;;;;9.60;3.30;;;15.80;99.90;;;;;;5054867;28;59208;-73
2023/08/03 02:25:58;;;;;;;10.68;3.20;;;15.80;99.90;;;;;;5063807;28;20064;-73
2023/08/03 02:28:24;;;;;;;13.98;3.92;;;15.80;99.90;;;;;;5040439;28;232183;-73
2023/08/03 02:30:51;;;;;;;9.52;3.63;;;15.80;99.90;;;;;;5063829;28;20055;-73
2023/08/03 02:33:17;;;;;;;10.63;4.00;;;15.90;99.90;;;;;;5045982;28;250664;-73
2023/08/03 02:35:43;;;;;;;12.30;3.70;;;15.80;99.90;;;;;;5070102;28;20067;-74
2023/08/03 02:38:09;;;;;;;13.15;3.75;;;15.80;99.90;;;;;;5058884;28;268306;-75
2023/08/03 02:40:35;;;;;;;14.52;4.45;;;15.90;99.90;;;;;;5070612;28;20036;-76
2023/08/03 02:43:01;;;;;;;12.57;4.15;;;15.90;99.90;;;;;;5055768;28;157344;-75
2023/08/03 02:45:27;;;;;;;18.70;3.90;;;15.80;99.90;;;;;;5058571;28;20048;-75
2023/08/03 02:47:55;;;;;;;12.23;3.95;;;15.90;99.90;;;;;;5047523;28;149817;-75
2023/08/03 02:50:21;;;;;;;11.18;3.72;;;15.80;99.90;;;;;;5057835;28;20438;-74
2023/08/03 02:52:47;;;;;;;13.25;4.00;;;15.80;99.90;;;;;;5022262;28;235968;-75
2023/08/03 02:55:13;;;;;;;10.02;4.65;;;15.80;99.90;;;;;;5055173;28;20048;-73
2023/08/03 02:57:40;;;;;;;11.13;4.20;;;15.80;99.90;;;;;;5046139;28;245569;-73
2023/08/03 03:00:06;;;;;;;10.88;4.25;;;15.90;99.90;;;;;;5058621;28;20395;-73
2023/08/03 03:02:32;;;;;;;10.25;4.35;;;15.90;99.90;;;;;;5052675;28;67444;-72
2023/08/03 03:04:58;;;;;;;11.50;4.30;;;15.90;99.90;;;;;;5061490;28;20048;-72
2023/08/03 03:07:24;;;;;;;11.88;4.40;;;15.90;99.90;;;;;;5055195;28;275970;-72
2023/08/03 03:09:50;;;;;;;11.90;4.95;;;15.80;99.90;;;;;;5064140;28;20048;-72
2023/08/03 03:12:16;;;;;;;12.95;4.85;;;15.90;99.90;;;;;;5049716;28;272526;-72
2023/08/03 03:14:43;;;;;;;11.88;4.88;;;15.90;99.90;;;;;;5076615;28;20072;-72
2023/08/03 03:17:09;;;;;;;11.13;5.43;;;15.90;99.90;;;;;;5041236;28;32610;-72
2023/08/03 03:19:35;;;;;;;14.60;6.90;;;15.90;99.90;;;;;;5069059;28;20057;-72
2023/08/03 03:22:01;;;;;;;15.48;7.15;;;15.90;99.90;;;;;;5052906;28;257435;-72
2023/08/03 03:24:27;;;;;;;16.05;7.68;;;15.90;99.90;;;;;;5070041;28;20550;-73
2023/08/03 03:26:54;;;;;;;16.67;8.30;;;15.90;99.90;;;;;;5051819;28;258326;-72
2023/08/03 03:29:20;;;;;;;19.95;9.07;;;15.90;99.90;;;;;;5068732;28;20044;-72
2023/08/03 03:31:46;;;;;;;23.35;9.75;;;15.90;99.90;;;;;;5047357;28;294734;-72
2023/08/03 03:34:12;;;;;;;21.05;9.52;;;15.90;99.90;;;;;;5079751;28;20048;-72
2023/08/03 03:36:38;;;;;;;21.37;9.93;;;16.00;99.90;;;;;;5046592;28;270209;-72
2023/08/03 03:39:05;;;;;;;18.55;10.32;;;16.00;99.90;;;;;;5075512;28;20060;-72
2023/08/03 03:41:31;;;;;;;20.00;9.93;;;16.00;99.90;;;;;;5067194;28;20060;-72
2023/08/03 03:43:57;;;;;;;20.83;10.52;;;16.00;99.90;;;;;;5059265;28;26594;-74
2023/08/03 03:46:23;;;;;;;19.45;10.38;;;16.00;99.90;;;;;;5066895;28;20052;-72
2023/08/03 03:48:49;;;;;;;20.60;9.75;;;16.00;99.90;;;;;;5044387;28;62936;-72
2023/08/03 03:51:18;;;;;;;20.92;9.90;;;16.00;99.90;;;;;;5059658;28;20045;-73
2023/08/03 03:53:44;;;;;;;17.45;9.18;;;16.00;99.90;;;;;;5028037;28;74256;-72
2023/08/03 03:56:11;;;;;;;20.15;8.85;;;16.00;99.90;;;;;;5061903;28;20063;-72
2023/08/03 03:58:37;;;;;;;23.35;9.98;;;15.90;99.90;;;;;;5050414;28;122057;-73
2023/08/03 04:01:03;;;;;;;22.58;9.77;;;15.90;99.90;;;;;;5059734;28;20052;-73
2023/08/03 04:03:29;;;;;;;21.27;8.80;;;15.90;99.90;;;;;;5039715;28;224460;-73
2023/08/03 04:05:55;;;;;;;22.00;9.40;;;15.90;99.90;;;;;;5029915;28;20575;-73
2023/08/03 04:08:21;;;;;;;21.13;9.60;;;15.80;99.90;;;;;;5046610;28;194387;-73
2023/08/03 04:10:47;;;;;;;22.10;8.95;;;15.90;99.90;;;;;;5065386;28;21132;-73
2023/08/03 04:13:13;;;;;;;22.75;8.98;;;15.90;99.90;;;;;;5065010;28;253428;-72
2023/08/03 04:15:39;;;;;;;23.58;8.70;;;15.90;99.90;;;;;;5065873;28;20068;-72
2023/08/03 04:18:05;;;;;;;18.08;8.07;;;15.90;99.90;;;;;;5064404;28;258179;-73
2023/08/03 04:20:32;;;;;;;24.60;8.73;;;15.90;99.90;;;;;;5068583;28;20079;-72
2023/08/03 04:22:58;;;;;;;21.88;7.32;;;15.90;99.90;;;;;;5065145;28;263371;-73
2023/08/03 04:25:24;;;;;;;22.40;7.10;;;15.90;99.90;;;;;;5070123;28;20052;-72
2023/08/03 04:27:50;;;;;;;21.50;7.32;;;15.90;99.90;;;;;;5057814;28;266088;-73
2023/08/03 04:30:16;;;;;;;21.33;7.00;;;15.90;99.90;;;;;;5068465;28;20061;-72
2023/08/03 04:32:42;;;;;;;27.85;7.22;;;15.90;99.90;;;;;;5054656;28;274856;-73
2023/08/03 04:35:09;;;;;;;17.45;6.63;;;15.90;99.90;;;;;;5075345;28;20067;-72
2023/08/03 04:37:35;;;;;;;24.75;7.25;;;15.90;99.90;;;;;;5056023;28;259303;-72
2023/08/03 04:40:02;;;;;;;22.63;6.43;;;15.90;99.90;;;;;;5069893;28;20266;-73
2023/08/03 04:42:28;;;;;;;22.63;5.88;;;15.90;99.90;;;;;;5064277;28;264963;-74
2023/08/03 04:44:56;;;;;;;23.70;6.53;;;16.00;99.90;;;;;;5060479;28;20048;-73
2023/08/03 04:47:22;;;;;;;22.35;5.50;;;15.90;99.90;;;;;;5055809;28;265474;-74
2023/08/03 04:49:48;;;;;;;26.20;6.32;;;15.90;99.90;;;;;;5072062;28;20044;-75
2023/08/03 04:52:14;;;;;;;20.33;5.80;;;15.90;99.90;;;;;;5042192;28;268626;-74
2023/08/03 04:54:40;;;;;;;21.38;4.93;;;16.00;99.90;;;;;;5053959;28;20052;-74
2023/08/03 04:57:06;;;;;;;19.48;4.47;;;16.00;99.90;;;;;;5063018;28;277345;-74
2023/08/03 04:59:32;;;;;;;22.58;4.53;;;16.00;99.90;;;;;;5060518;28;20418;-75
2023/08/03 05:01:58;;;;;;;20.95;4.75;;;16.00;99.90;;;;;;5048922;28;206974;-74
2023/08/03 05:04:24;;;;;;;19.80;4.68;;;16.00;99.90;;;;;;5067158;28;20047;-74
2023/08/03 05:06:52;;;;;;;15.88;4.32;;;16.00;99.90;;;;;;5054343;28;265374;-75
2023/08/03 05:09:18;;;;;;;25.27;4.70;;;16.10;99.90;;;;;;5056350;28;20049;-74
2023/08/03 05:11:44;;;;;;;18.58;4.63;;;16.10;99.90;;;;;;5044613;28;270175;-75
2023/08/03 05:14:10;;;;;;;17.42;4.43;;;16.10;99.90;;;;;;5062816;28;20056;-74
2023/08/03 05:16:36;;;;;;;20.48;4.72;;;16.10;99.90;;;;;;5048815;28;260484;-74
2023/08/03 05:19:02;;;;;;;21.65;4.70;;;16.10;99.90;;;;;;5058155;28;20048;-74
2023/08/03 05:21:28;;;;;;;17.73;4.78;;;16.10;99.90;;;;;;5067992;28;20059;-73
2023/08/03 05:23:54;;;;;;;23.20;4.93;;;16.20;99.90;;;;;;5047638;28;72336;-73
2023/08/03 05:26:20;;;;;;;20.00;4.50;;;16.20;99.90;;;;;;5066927;28;20056;-74
2023/08/03 05:28:46;;;;;;;20.63;4.57;;;16.20;99.90;;;;;;5050495;28;269472;-72
2023/08/03 05:31:12;;;;;;;17.95;4.93;;;16.20;99.90;;;;;;5063331;28;20411;-75
2023/08/03 05:33:39;;;;;;;26.58;4.97;;;16.30;99.90;;;;;;5053421;28;130219;-74
2023/08/03 05:36:05;;;;;;;21.98;4.85;;;16.30;99.90;;;;;;5067619;28;20063;-74
2023/08/03 05:38:31;;;;;;;23.20;4.82;;;16.30;99.90;;;;;;5060461;28;257494;-74
2023/08/03 05:40:57;;;;;;;22.52;5.18;;;16.40;99.90;;;;;;5067536;28;20526;-73
2023/08/03 05:43:26;;;;;;;20.35;4.60;;;16.40;99.90;;;;;;5059687;28;276035;-73
2023/08/03 05:46:02;;;;;;;21.67;4.65;;;16.40;99.90;;;;;;5060722;28;20511;-73
2023/08/03 05:48:31;;;;;;;18.67;4.90;;;16.50;99.90;;;;;;5056098;28;276029;-73
2023/08/03 05:50:58;;;;;;;19.95;4.50;;;16.60;99.90;;;;;;5068929;28;20055;-72
2023/08/03 05:53:24;;;;;;;19.10;4.47;;;16.50;99.90;;;;;;5038491;28;267432;-72
2023/08/03 05:55:50;;;;;;;21.65;4.93;;;16.60;99.90;;;;;;5059381;28;20550;-72
2023/08/03 05:58:17;;;;;;;20.77;4.57;;;16.70;99.90;;;;;;5060773;28;261817;-72
2023/08/03 06:00:47;;;;;;;14.90;4.53;;;16.90;99.90;;;;;;5069579;28;20423;-72
2023/08/03 06:03:16;;;;;;;17.80;4.70;;;16.90;99.90;;;;;;5062600;28;274872;-74
2023/08/03 06:05:49;;;;;;;18.63;4.00;;;16.90;99.90;;;;;;5063665;28;20288;-73
2023/08/03 06:08:20;;;;;;;18.90;3.83;;;17.00;99.90;;;;;;5062933;28;261870;-74
2023/08/03 06:10:48;;;;;;;20.92;4.55;;;16.90;99.90;;;;;;5068222;28;20071;-72
2023/08/03 06:13:16;;;;;;;17.95;4.13;;;17.00;99.90;;;;;;5062774;28;266872;-73
2023/08/03 06:15:44;;;;;;;20.00;4.05;;;17.10;99.90;;;;;;5065918;28;20068;-73
2023/08/03 06:18:14;;;;;;;13.32;3.45;;;17.00;99.90;;;;;;5061035;28;275927;-73
2023/08/03 06:20:46;;;;;;;24.05;4.45;;;17.10;99.90;;;;;;5066768;28;20521;-72
2023/08/03 06:23:27;;;;;;;19.55;4.55;;;17.10;99.90;;;;;;5051427;28;271142;-73
2023/08/03 06:25:55;;;;;;;14.80;3.80;;;17.10;99.90;;;;;;5065343;28;20052;-72
2023/08/03 06:28:23;;;;;;;15.80;3.75;;;17.00;99.90;;;;;;5051574;28;256763;-73
2023/08/03 06:30:51;;;;;;;16.02;3.45;;;17.00;99.90;;;;;;5060122;28;20045;-74
2023/08/03 06:33:18;;;;;;;15.32;3.63;;;17.10;99.90;;;;;;5045892;28;98463;-75
2023/08/03 06:35:46;;;;;;;16.70;3.90;;;17.10;99.90;;;;;;5047966;28;20061;-73
2023/08/03 06:38:15;;;;;;;12.27;2.97;;;17.30;99.90;;;;;;5031761;28;98813;-74
2023/08/03 06:40:42;;;;;;;12.90;2.97;;;17.60;99.90;;;;;;5037713;28;20522;-73
2023/08/03 06:43:09;;;;;;;12.55;2.63;;;17.90;99.90;;;;;;5050662;28;260196;-72
2023/08/03 06:45:36;;;;;;;18.05;2.78;;;18.10;99.90;;;;;;5060525;28;20036;-73
2023/08/03 06:48:02;;;;;;;11.60;2.20;;;18.20;99.90;;;;;;5050968;28;260976;-73
2023/08/03 06:50:30;;;;;;;10.77;2.05;;;18.00;99.90;;;;;;5064176;28;20426;-72
2023/08/03 06:52:57;;;;;;;10.95;2.10;;;18.00;99.90;;;;;;5024269;28;260405;-72
2023/08/03 06:55:24;;;;;;;8.98;1.90;;;18.00;99.90;;;;;;5067230;28;20056;-73
2023/08/03 06:57:50;;;;;;;9.52;1.52;;;18.30;99.90;;;;;;5056564;28;258039;-72
2023/08/03 07:00:17;;;;;;;9.52;1.60;;;18.40;99.90;;;;;;5058199;28;20060;-72
2023/08/03 07:02:45;;;;;;;8.38;1.50;;;18.40;99.90;;;;;;5049063;28;272921;-72
2023/08/03 07:05:11;;;;;;;13.20;1.98;;;18.40;99.90;;;;;;5058023;28;20056;-72
2023/08/03 07:07:37;;;;;;;8.98;1.75;;;18.60;99.90;;;;;;5056209;28;94850;-72
2023/08/03 07:10:05;;;;;;;8.63;1.70;;;18.70;99.90;;;;;;5055836;28;20060;-73
2023/08/03 07:12:33;;;;;;;8.85;1.52;;;18.70;99.90;;;;;;5054778;28;264464;-73
2023/08/03 07:15:00;;;;;;;9.63;1.38;;;18.70;99.90;;;;;;5069126;28;20059;-72
2023/08/03 07:17:26;;;;;;;8.15;1.30;;;18.60;99.90;;;;;;5055748;28;269886;-71
2023/08/03 07:19:53;;;;;;;12.48;1.75;;;18.80;99.90;;;;;;5071962;28;20052;-72
2023/08/03 07:22:19;;;;;;;10.23;1.80;;;18.90;99.90;;;;;;5056014;28;114169;-72
2023/08/03 07:24:46;;;;;;;8.32;1.10;;;18.90;99.90;;;;;;5054491;28;20060;-72
2023/08/03 07:27:12;;;;;;;7.70;1.33;;;19.30;99.90;;;;;;5039772;28;20059;-72
2023/08/03 07:29:38;;;;;;;5.88;1.10;;;19.30;99.90;;;;;;5067832;28;20037;-71
2023/08/03 07:32:05;;;;;;;7.70;1.10;;;19.30;99.90;;;;;;5053727;28;274506;-72
2023/08/03 07:34:31;;;;;;;5.60;0.95;;;19.40;99.90;;;;;;5057973;28;20041;-71
2023/08/03 07:36:57;;;;;;;6.72;1.05;;;19.40;99.90;;;;;;5050812;28;262832;-72
2023/08/03 07:39:23;;;;;;;7.72;1.13;;;19.30;99.90;;;;;;5070208;28;20067;-72
2023/08/03 07:41:50;;;;;;;8.17;1.10;;;19.50;99.90;;;;;;5049130;28;268198;-71
2023/08/03 07:44:16;;;;;;;6.35;1.20;;;19.80;99.90;;;;;;5070914;28;20060;-72
2023/08/03 07:46:43;;;;;;;5.07;1.07;;;20.10;99.90;;;;;;5050737;28;265960;-72
2023/08/03 07:49:09;;;;;;;6.93;1.17;;;20.10;99.90;;;;;;5075390;28;20068;-72
2023/08/03 07:51:35;;;;;;;8.45;1.10;;;20.30;99.90;;;;;;5046013;28;262575;-71
2023/08/03 07:54:02;;;;;;;7.65;1.20;;;20.20;99.90;;;;;;5057483;28;20049;-71
2023/08/03 07:56:28;;;;;;;5.30;0.98;;;20.40;99.90;;;;;;5065922;28;20057;-72
2023/08/03 07:58:54;;;;;;;8.05;1.20;;;20.40;99.90;;;;;;5062299;28;250605;-72
2023/08/03 08:01:21;;;;;;;8.65;1.30;;;20.40;99.90;;;;;;5067025;28;20574;-72
2023/08/03 08:03:48;;;;;;;8.40;0.90;;;20.80;99.90;;;;;;5065787;28;261089;-73
2023/08/03 08:06:19;;;;;;;6.40;1.00;;;20.60;99.90;;;;;;5063869;28;20060;-72
2023/08/03 08:08:46;;;;;;;8.90;1.02;;;20.90;99.90;;;;;;5055866;28;127625;-72
2023/08/03 08:11:14;;;;;;;7.00;0.90;;;20.40;99.90;;;;;;5072589;28;20036;-72
2023/08/03 08:13:41;;;;;;;5.22;0.90;;;20.30;99.90;;;;;;5056982;28;92253;-73
2023/08/03 08:16:09;;;;;;;6.70;0.93;;;20.90;99.90;;;;;;5064090;28;20108;-72
2023/08/03 08:18:36;;;;;;;6.55;1.00;;;20.90;99.90;;;;;;5051596;28;91163;-73
2023/08/03 08:21:04;;;;;;;6.15;1.10;;;20.60;99.90;;;;;;5076553;28;20071;-72
2023/08/03 08:23:30;;;;;;;6.70;1.00;;;20.70;99.90;;;;;;5056992;28;208090;-73
2023/08/03 08:25:56;;;;;;;6.85;0.93;;;21.10;99.90;;;;;;5070726;28;20696;-72
2023/08/03 08:28:23;;;;;;;6.45;1.05;;;21.40;99.90;;;;;;5055928;28;257802;-72
2023/08/03 08:30:50;;;;;;;6.78;1.20;;;21.70;99.90;;;;;;5070013;28;20052;-72
2023/08/03 08:33:17;;;;;;;6.43;1.00;;;21.80;99.90;;;;;;5060290;28;269038;-72
2023/08/03 08:35:45;;;;;;;6.38;0.95;;;22.10;99.90;;;;;;5069897;28;20415;-72
2023/08/03 08:38:15;;;;;;;6.63;1.00;;;22.30;99.90;;;;;;5064436;28;259240;-73
2023/08/03 08:40:44;;;;;;;8.38;0.95;;;22.70;99.90;;;;;;5063732;28;20055;-73
2023/08/03 08:43:10;;;;;;;6.57;1.00;;;22.70;99.90;;;;;;5061743;28;269091;-72
2023/08/03 08:45:38;;;;;;;7.22;1.23;;;22.40;99.90;;;;;;5063630;28;20063;-72
2023/08/03 08:48:05;;;;;;;8.18;1.20;;;22.20;99.90;;;;;;5055443;28;274778;-72
2023/08/03 08:50:32;;;;;;;7.53;1.20;;;22.30;99.90;;;;;;5065504;28;20057;-73
2023/08/03 08:52:58;;;;;;;6.45;0.90;;;22.50;99.90;;;;;;5026454;28;221025;-72
2023/08/03 08:55:29;;;;;;;6.50;1.10;;;22.90;99.90;;;;;;5065856;28;20051;-71
2023/08/03 08:57:57;;;;;;;8.60;1.10;;;22.90;99.90;;;;;;5058891;28;272878;-72
2023/08/03 09:00:27;;;;;;;6.70;1.15;;;23.30;99.90;;;;;;5059524;28;20063;-71
2023/08/03 09:02:55;;;;;;;6.38;1.00;;;22.90;99.90;;;;;;5052046;28;255886;-72
2023/08/03 09:05:24;;;;;;;6.78;1.20;;;22.80;99.90;;;;;;5065907;28;20301;-72
2023/08/03 09:08:11;;;;;;;6.57;1.20;;;23.50;99.90;;;;;;5051980;28;254835;-72
2023/08/03 09:10:52;;;;;;;6.82;1.02;;;23.80;99.90;;;;;;5063334;28;20059;-72
2023/08/03 09:13:29;;;;;;;6.07;1.00;;;24.20;99.90;;;;;;5065668;28;253402;-73
2023/08/03 09:15:55;;;;;;;9.15;1.23;;;24.60;99.90;;;;;;5069538;28;20408;-72
2023/08/03 09:18:22;;;;;;;6.97;1.30;;;23.90;99.90;;;;;;5050317;28;262107;-73
2023/08/03 09:20:49;;;;;;;9.73;1.13;;;23.60;99.90;;;;;;5061073;28;20068;-72
2023/08/03 09:23:28;;;;;;;7.03;1.10;;;23.30;99.90;;;;;;5052566;28;278567;-72
2023/08/03 09:25:54;;;;;;;6.15;0.98;;;23.20;99.90;;;;;;5075824;28;20048;-72
2023/08/03 09:28:32;;;;;;;6.18;0.90;;;22.80;99.90;;;;;;5054662;28;261159;-71
2023/08/03 09:30:58;;;;;;;6.95;1.08;;;22.20;99.90;;;;;;5078865;28;20052;-72
2023/08/03 09:33:24;;;;;;;9.18;1.38;;;22.30;99.90;;;;;;5054654;28;59884;-72
2023/08/03 09:36:08;;;;;;;11.85;1.73;;;23.30;99.90;;;;;;5064494;28;20049;-71
2023/08/03 09:38:34;;;;;;;7.15;1.20;;;23.90;99.90;;;;;;5057988;28;259843;-73
2023/08/03 09:41:01;;;;;;;9.68;1.35;;;24.40;99.90;;;;;;5061180;28;20052;-72
2023/08/03 09:43:27;;;;;;;7.72;1.35;;;23.90;99.90;;;;;;5056653;28;260651;-72
2023/08/03 09:45:54;;;;;;;7.88;1.40;;;24.00;99.90;;;;;;5061764;28;20458;-72
2023/08/03 09:48:21;;;;;;;8.38;1.17;;;23.10;99.90;;;;;;5052274;28;276279;-72
2023/08/03 09:50:52;;;;;;;10.63;1.50;;;22.60;99.90;;;;;;5057286;28;20167;-72
2023/08/03 09:53:21;;;;;;;9.75;1.50;;;22.40;99.90;;;;;;5028993;28;91656;-72
2023/08/03 09:55:57;;;;;;;10.40;1.60;;;23.20;99.90;;;;;;5063114;28;20396;-72
2023/08/03 09:58:58;;;;;;;10.80;1.40;;;24.30;99.90;;;;;;5060788;28;107002;-72
2023/08/03 10:01:27;;;;;;;9.13;1.42;;;25.30;99.90;;;;;;5060568;28;20064;-72
2023/08/03 10:03:59;;;;;;;8.73;1.52;;;25.90;99.90;;;;;;5033356;28;20041;-73
2023/08/03 10:06:34;;;;;;;8.77;1.17;;;25.60;99.90;;;;;;5068470;28;20056;-73
2023/08/03 10:09:05;;;;;;;8.93;1.60;;;24.90;99.90;;;;;;5056030;28;20052;-72
2023/08/03 10:11:38;;;;;;;8.45;1.42;;;24.80;99.90;;;;;;5066956;28;20067;-72
2023/08/03 10:14:05;;;;;;;8.50;1.35;;;24.10;99.90;;;;;;5036206;28;20033;-72
2023/08/03 10:16:33;;;;;;;10.80;1.40;;;23.50;99.90;;;;;;5048590;28;20053;-72
2023/08/03 10:19:01;;;;;;;7.60;1.30;;;22.90;99.90;;;;;;5069886;28;20053;-71
2023/08/03 10:21:28;;;;;;;8.43;1.50;;;22.60;99.90;;;;;;5076564;28;20056;-72
2023/08/03 10:24:13;;;;;;;9.32;1.52;;;22.90;99.90;;;;;;5062751;28;256985;-72
2023/08/03 10:26:40;;;;;;;8.23;1.50;;;23.50;99.90;;;;;;5059597;28;264281;-72
2023/08/03 10:29:06;;;;;;;7.20;1.30;;;23.30;99.90;;;;;;5042129;28;20073;-72
2023/08/03 10:31:33;;;;;;;9.02;1.50;;;23.00;99.90;;;;;;5046123;28;20049;-72
2023/08/03 10:33:59;;;;;;;6.70;1.35;;;23.60;99.90;;;;;;5052364;28;20052;-73
2023/08/03 10:36:31;;;;;;;9.75;1.40;;;24.40;99.90;;;;;;5062238;28;20057;-72
2023/08/03 10:39:03;;;;;;;9.40;1.42;;;25.00;99.90;;;;;;5044235;28;151329;-72
2023/08/03 10:41:36;;;;;;;7.45;1.20;;;25.60;99.90;;;;;;5043379;28;20068;-72
2023/08/03 10:44:05;;;;;;;7.22;1.10;;;26.20;99.90;;;;;;5046485;28;20064;-72
2023/08/03 10:46:43;;;;;;;8.15;1.40;;;25.30;99.90;;;;;;5055544;28;20049;-72
2023/08/03 10:49:19;;;;;;;8.25;1.10;;;25.80;99.90;;;;;;5066851;28;20056;-72
2023/08/03 10:51:46;;;;;;;7.30;1.20;;;26.00;98.60;;;;;;5027762;28;263143;-73
2023/08/03 10:54:12;;;;;;;8.23;1.40;;;25.50;99.40;;;;;;5069216;28;20392;-72
2023/08/03 10:56:38;;;;;;;8.27;1.53;;;25.60;99.50;;;;;;5048311;28;269483;-72
2023/08/03 10:59:05;;;;;;;7.45;1.40;;;25.70;99.20;;;;;;5054949;28;20541;-72
2023/08/03 11:01:31;;;;;;;11.25;1.75;;;25.80;99.50;;;;;;5061453;28;20045;-72
2023/08/03 11:04:00;;;;;;;11.77;1.60;;;25.40;99.70;;;;;;5061162;28;20521;-72
2023/08/03 11:06:31;;;;;;;7.88;1.20;;;25.10;99.90;;;;;;5063382;28;20060;-72
2023/08/03 11:08:57;;;;;;;6.43;1.23;;;25.40;99.30;;;;;;5054840;28;117800;-72
2023/08/03 11:11:32;;;;;;;7.72;1.05;;;24.90;99.90;;;;;;5064438;28;20057;-71
2023/08/03 11:13:58;;;;;;;8.07;1.60;;;24.10;99.90;;;;;;5061599;28;259947;-72
2023/08/03 11:16:25;;;;;;;8.10;1.20;;;23.90;99.90;;;;;;5066687;28;20483;-70
2023/08/03 11:18:51;;;;;;;8.68;1.40;;;23.70;99.90;;;;;;5048764;28;258183;-71
2023/08/03 11:21:17;;;;;;;9.10;1.27;;;23.90;99.90;;;;;;5071468;28;20060;-72
2023/08/03 11:23:43;;;;;;;6.55;1.05;;;24.40;99.90;;;;;;5066638;28;262773;-72
2023/08/03 11:26:10;;;;;;;6.57;1.20;;;24.90;99.90;;;;;;5065747;28;20056;-72
2023/08/03 11:28:41;;;;;;;7.93;1.05;;;25.10;99.90;;;;;;5063294;28;272668;-71
2023/08/03 11:31:16;;;;;;;7.72;1.30;;;25.50;98.80;;;;;;5070833;28;20057;-71
2023/08/03 11:33:52;;;;;;;6.03;1.00;;;25.40;98.60;;;;;;5064552;28;265254;-72
2023/08/03 11:36:19;;;;;;;6.50;1.00;;;25.60;98.80;;;;;;5066722;28;20507;-71
2023/08/03 11:38:45;;;;;;;6.10;1.10;;;24.90;99.30;;;;;;5062875;28;268719;-71
2023/08/03 11:41:16;;;;;;;5.68;1.00;;;24.50;99.90;;;;;;5070888;28;20063;-71
2023/08/03 11:43:42;;;;;;;6.45;1.20;;;24.10;99.70;;;;;;5059740;28;271802;-71
2023/08/03 11:46:08;;;;;;;6.57;1.15;;;24.20;99.90;;;;;;5068634;28;20613;-70
2023/08/03 11:48:34;;;;;;;5.45;0.90;;;24.70;99.90;;;;;;5067153;28;260730;-70
2023/08/03 11:51:01;;;;;;;6.70;1.20;;;24.70;99.80;;;;;;5062393;28;20052;-71
2023/08/03 11:53:31;;;;;;;9.60;1.30;;;24.20;99.80;;;;;;5021499;28;205237;-71
2023/08/03 11:55:58;;;;;;;5.80;1.20;;;24.10;99.90;;;;;;5063795;28;20044;-71
2023/08/03 11:58:25;;;;;;;9.07;1.30;;;24.20;99.90;;;;;;5057199;28;256798;-71
2023/08/03 12:01:00;;;;;;;6.60;1.10;;;24.40;99.90;;;;;;5076827;28;20704;-71
2023/08/03 12:03:37;;;;;;;6.93;1.30;;;24.00;99.90;;;;;;5056148;28;274720;-71
2023/08/03 12:06:08;;;;;;;6.18;1.05;;;23.60;99.90;;;;;;5070951;28;20060;-71
2023/08/03 12:08:45;;;;;;;8.57;1.20;;;23.50;99.90;;;;;;5049010;28;25713;-71
2023/08/03 12:11:16;;;;;;;5.45;1.10;;;24.00;99.90;;;;;;5067933;28;20044;-70
2023/08/03 12:13:43;;;;;;;6.45;1.00;;;23.90;99.90;;;;;;5064478;28;264375;-71
2023/08/03 12:16:09;;;;;;;7.57;0.98;;;23.40;99.90;;;;;;5070845;28;20059;-70
2023/08/03 12:18:36;;;;;;;4.22;1.02;;;23.20;99.90;;;;;;5050955;28;262346;-69
2023/08/03 12:21:03;;;;;;;5.28;0.85;;;23.50;99.90;;;;;;5073365;28;20049;-70
2023/08/03 12:23:29;;;;;;;4.80;0.93;;;24.00;99.90;;;;;;5052067;28;75198;-70
2023/08/03 12:25:55;;;;;;;7.13;1.00;;;24.40;99.90;;;;;;5061923;28;20119;-70
2023/08/03 12:28:21;;;;;;;5.32;0.90;;;25.20;99.90;;;;;;5061133;28;270331;-69
2023/08/03 12:30:47;;;;;;;6.43;1.10;;;25.30;99.80;;;;;;5068751;28;20067;-69
2023/08/03 12:33:13;;;;;;;6.55;1.00;;;24.90;99.30;;;;;;5063702;28;277932;-71
2023/08/03 12:35:39;;;;;;;4.78;0.93;;;25.00;99.80;;;;;;5069027;28;20036;-70
2023/08/03 12:38:06;;;;;;;6.07;1.00;;;24.40;99.80;;;;;;5061611;28;256876;-71
2023/08/03 12:40:32;;;;;;;6.75;1.10;;;23.90;99.90;;;;;;5072416;28;20063;-71